createdAt,value
2017-08-19T00:00:56.691Z,18.11
2017-08-19T00:03:24.620Z,18.00
2017-08-19T00:05:52.527Z,17.97
2017-08-19T00:08:20.427Z,17.99
2017-08-19T00:10:48.460Z,17.98
2017-08-19T00:13:16.368Z,17.92
2017-08-19T00:15:44.263Z,17.84
2017-08-19T00:18:12.189Z,17.83
2017-08-19T00:20:40.100Z,17.91
2017-08-19T00:23:08.006Z,17.90
2017-08-19T00:25:35.907Z,17.86
2017-08-19T00:28:03.934Z,17.88
2017-08-19T00:30:31.826Z,17.84
2017-08-19T00:33:00.146Z,17.84
2017-08-19T00:35:28.050Z,17.84
2017-08-19T00:37:55.957Z,17.81
2017-08-19T00:40:23.857Z,17.87
2017-08-19T00:42:51.754Z,17.78
2017-08-19T00:45:20.039Z,17.84
2017-08-19T00:47:47.952Z,17.84
2017-08-19T00:50:15.855Z,17.78
2017-08-19T00:52:43.784Z,17.84
2017-08-19T00:55:11.687Z,17.82
2017-08-19T00:57:39.590Z,17.87
2017-08-19T01:00:07.490Z,17.85
2017-08-19T01:02:35.411Z,17.77
2017-08-19T01:05:03.391Z,17.71
2017-08-19T01:07:31.302Z,17.73
2017-08-19T01:09:59.223Z,17.74
2017-08-19T01:12:27.547Z,17.61
2017-08-19T01:14:55.437Z,17.62
2017-08-19T01:17:23.344Z,17.66
2017-08-19T01:19:51.868Z,17.65
2017-08-19T01:22:19.768Z,17.67
2017-08-19T01:24:47.817Z,17.66
2017-08-19T01:27:15.710Z,17.75
2017-08-19T01:29:43.628Z,17.72
2017-08-19T01:32:11.554Z,17.67
2017-08-19T01:34:39.631Z,17.71
2017-08-19T01:37:07.540Z,17.77
2017-08-19T01:39:35.430Z,17.74
2017-08-19T01:42:03.336Z,17.83
2017-08-19T01:44:31.252Z,17.94
2017-08-19T01:46:59.431Z,17.92
2017-08-19T01:49:27.335Z,17.87
2017-08-19T01:51:55.405Z,17.90
2017-08-19T01:54:23.303Z,17.83
2017-08-19T01:56:51.207Z,17.71
2017-08-19T01:59:19.128Z,17.73
2017-08-19T02:01:47.033Z,17.62
2017-08-19T02:04:14.942Z,17.54
2017-08-19T02:06:42.833Z,17.52
2017-08-19T02:09:10.744Z,17.51
2017-08-19T02:11:38.741Z,17.44
2017-08-19T02:14:06.859Z,17.39
2017-08-19T02:16:34.758Z,17.36
2017-08-19T02:19:02.687Z,17.36
2017-08-19T02:21:30.912Z,17.26
2017-08-19T02:23:58.811Z,17.23
2017-08-19T02:26:26.716Z,17.23
2017-08-19T02:28:54.628Z,17.12
2017-08-19T02:31:22.522Z,17.16
2017-08-19T02:33:50.427Z,17.15
2017-08-19T02:36:18.335Z,17.08
2017-08-19T02:38:46.441Z,17.07
2017-08-19T02:41:14.337Z,17.07
2017-08-19T02:43:42.244Z,17.00
2017-08-19T02:46:10.157Z,16.98
2017-08-19T02:48:38.065Z,17.02
2017-08-19T02:51:05.980Z,17.06
2017-08-19T02:53:34.216Z,16.99
2017-08-19T02:56:02.447Z,17.00
2017-08-19T02:58:30.361Z,16.91
2017-08-19T03:00:58.250Z,16.86
2017-08-19T03:03:26.168Z,16.84
2017-08-19T03:05:54.061Z,16.89
2017-08-19T03:08:21.966Z,16.84
2017-08-19T03:10:49.866Z,16.91
2017-08-19T03:13:17.781Z,16.96
2017-08-19T03:15:45.692Z,16.84
2017-08-19T03:18:13.976Z,16.88
2017-08-19T03:20:41.874Z,16.78
2017-08-19T03:23:09.771Z,16.80
2017-08-19T03:25:37.688Z,16.82
2017-08-19T03:28:05.591Z,16.93
2017-08-19T03:30:33.504Z,16.95
2017-08-19T03:33:01.404Z,16.95
2017-08-19T03:35:29.318Z,16.91
2017-08-19T03:37:57.235Z,16.95
2017-08-19T03:40:25.140Z,17.06
2017-08-19T03:42:53.047Z,17.02
2017-08-19T03:45:20.954Z,17.10
2017-08-19T03:47:48.863Z,17.05
2017-08-19T03:50:16.764Z,17.15
2017-08-19T03:52:44.672Z,17.22
2017-08-19T03:55:13.007Z,17.20
2017-08-19T03:57:40.912Z,17.29
2017-08-19T04:00:08.802Z,17.18
2017-08-19T04:02:36.720Z,17.08
2017-08-19T04:05:04.624Z,17.08
2017-08-19T04:07:32.846Z,17.02
2017-08-19T04:10:00.830Z,17.01
2017-08-19T04:12:28.726Z,16.95
2017-08-19T04:14:56.626Z,16.89
2017-08-19T04:17:24.535Z,17.00
2017-08-19T04:19:52.452Z,17.07
2017-08-19T04:22:20.367Z,17.05
2017-08-19T04:24:48.555Z,17.15
2017-08-19T04:27:16.468Z,17.16
2017-08-19T04:29:44.374Z,17.12
2017-08-19T04:32:12.310Z,17.17
2017-08-19T04:34:40.229Z,17.26
2017-08-19T04:37:08.144Z,17.41
2017-08-19T04:39:36.052Z,17.30
2017-08-19T04:42:04.339Z,17.47
2017-08-19T04:44:32.248Z,17.52
2017-08-19T04:47:00.142Z,17.49
2017-08-19T04:49:28.286Z,17.65
2017-08-19T04:51:56.200Z,17.58
2017-08-19T04:54:24.102Z,17.79
2017-08-19T04:56:52.060Z,17.96
2017-08-19T04:59:20.126Z,18.07
2017-08-19T05:01:48.029Z,18.20
2017-08-19T05:04:15.932Z,18.38
2017-08-19T05:06:43.834Z,18.47
2017-08-19T05:09:11.730Z,18.27
2017-08-19T05:11:39.631Z,18.12
2017-08-19T05:14:07.548Z,17.94
2017-08-19T05:16:35.711Z,17.89
2017-08-19T05:19:03.684Z,17.90
2017-08-19T05:21:31.578Z,17.89
2017-08-19T05:23:59.496Z,18.00
2017-08-19T05:26:27.400Z,17.96
2017-08-19T05:28:55.320Z,17.92
2017-08-19T05:31:23.226Z,17.89
2017-08-19T05:33:51.167Z,17.96
2017-08-19T05:36:19.072Z,18.01
2017-08-19T05:38:47.426Z,18.09
2017-08-19T05:41:15.326Z,18.09
2017-08-19T05:43:43.240Z,18.07
2017-08-19T05:46:11.137Z,18.01
2017-08-19T05:48:39.044Z,17.96
2017-08-19T05:51:06.956Z,18.07
2017-08-19T05:53:34.855Z,18.19
2017-08-19T05:56:02.773Z,18.17
2017-08-19T05:58:30.676Z,18.40
2017-08-19T06:00:58.657Z,18.58
2017-08-19T06:03:26.564Z,18.88
2017-08-19T06:05:54.596Z,18.91
2017-08-19T06:08:22.488Z,19.05
2017-08-19T06:10:50.388Z,19.01
2017-08-19T06:13:18.299Z,18.99
2017-08-19T06:15:46.190Z,19.19
2017-08-19T06:18:14.252Z,19.22
2017-08-19T06:20:42.145Z,19.00
2017-08-19T06:23:10.052Z,19.17
2017-08-19T06:25:37.959Z,19.07
2017-08-19T06:28:05.867Z,18.89
2017-08-19T06:30:33.999Z,18.73
2017-08-19T06:33:01.900Z,18.82
2017-08-19T06:35:29.794Z,18.74
2017-08-19T06:37:57.702Z,18.73
2017-08-19T06:40:25.672Z,18.58
2017-08-19T06:42:53.883Z,18.41
2017-08-19T06:45:21.788Z,18.54
2017-08-19T06:47:49.689Z,18.32
2017-08-19T06:50:17.709Z,18.40
2017-08-19T06:52:45.927Z,18.48
2017-08-19T06:55:13.831Z,18.44
2017-08-19T06:57:41.739Z,18.49
2017-08-19T07:00:09.642Z,18.81
2017-08-19T07:02:37.546Z,19.04
2017-08-19T07:05:05.871Z,18.95
2017-08-19T07:07:33.762Z,19.16
2017-08-19T07:10:01.662Z,19.42
2017-08-19T07:12:29.584Z,19.64
2017-08-19T07:14:57.490Z,19.35
2017-08-19T07:17:25.404Z,19.50
2017-08-19T07:19:53.312Z,19.65
2017-08-19T07:22:21.229Z,19.83
2017-08-19T07:24:49.119Z,19.89
2017-08-19T07:27:17.442Z,19.84
2017-08-19T07:29:45.348Z,19.83
2017-08-19T07:32:13.251Z,20.12
2017-08-19T07:34:41.378Z,20.45
2017-08-19T07:37:09.270Z,20.49
2017-08-19T07:39:37.186Z,20.91
2017-08-19T07:42:05.082Z,21.08
2017-08-19T07:44:32.996Z,21.23
2017-08-19T07:47:00.900Z,21.15
2017-08-19T07:49:28.822Z,21.17
2017-08-19T07:51:56.718Z,21.29
2017-08-19T07:54:24.618Z,21.56
2017-08-19T07:56:52.510Z,22.09
2017-08-19T07:59:20.604Z,22.22
2017-08-19T08:01:48.633Z,22.42
2017-08-19T08:04:16.532Z,22.89
2017-08-19T08:06:44.435Z,22.84
2017-08-19T08:09:12.335Z,22.72
2017-08-19T08:11:40.250Z,22.36
2017-08-19T08:14:08.155Z,22.47
2017-08-19T08:16:36.067Z,23.14
2017-08-19T08:19:03.983Z,23.55
2017-08-19T08:21:32.228Z,23.88
2017-08-19T08:24:00.256Z,23.75
2017-08-19T08:26:28.167Z,24.18
2017-08-19T08:28:56.496Z,24.35
2017-08-19T08:31:24.886Z,24.26
2017-08-19T08:33:55.487Z,24.60
2017-08-19T08:36:25.275Z,24.53
2017-08-19T08:38:53.726Z,24.93
2017-08-19T08:41:22.641Z,24.78
2017-08-19T08:43:50.891Z,24.27
2017-08-19T08:46:18.789Z,23.85
2017-08-19T08:48:46.683Z,23.73
2017-08-19T08:51:14.594Z,23.84
2017-08-19T08:53:42.490Z,23.82
2017-08-19T08:56:10.416Z,24.46
2017-08-19T08:58:38.318Z,24.66
2017-08-19T09:01:06.240Z,25.28
2017-08-19T09:03:35.006Z,26.38
2017-08-19T09:06:03.222Z,26.44
2017-08-19T09:08:31.118Z,26.37
2017-08-19T09:10:59.027Z,26.85
2017-08-19T09:13:26.946Z,27.71
2017-08-19T09:15:54.861Z,28.02
2017-08-19T09:18:22.780Z,28.86
2017-08-19T09:20:50.688Z,27.98
2017-08-19T09:23:18.605Z,26.86
2017-08-19T09:25:46.498Z,26.32
2017-08-19T09:28:14.422Z,27.64
2017-08-19T09:30:42.606Z,29.33
2017-08-19T09:33:10.736Z,30.94
2017-08-19T09:35:38.647Z,31.26
2017-08-19T09:38:06.551Z,30.81
2017-08-19T09:40:34.467Z,29.68
2017-08-19T09:43:02.656Z,27.48
2017-08-19T09:45:30.800Z,26.48
2017-08-19T09:47:59.003Z,26.10
2017-08-19T09:50:27.040Z,25.68
2017-08-19T09:52:54.939Z,25.60
2017-08-19T09:55:22.837Z,26.20
2017-08-19T09:57:50.744Z,25.92
2017-08-19T10:00:18.637Z,25.42
2017-08-19T10:02:46.546Z,25.06
2017-08-19T10:05:14.468Z,24.83
2017-08-19T10:07:42.387Z,24.49
2017-08-19T10:13:11.696Z,24.09
2017-08-19T10:15:39.599Z,23.99
2017-08-19T10:18:07.498Z,23.92
2017-08-19T10:20:35.407Z,23.90
2017-08-19T10:23:03.324Z,24.16
2017-08-19T10:25:31.228Z,24.62
2017-08-19T10:27:59.344Z,24.75
2017-08-19T10:30:27.242Z,24.95
2017-08-19T10:32:55.147Z,25.85
2017-08-19T10:35:23.068Z,26.34
2017-08-19T10:37:50.976Z,27.54
2017-08-19T10:40:18.896Z,29.21
2017-08-19T10:42:46.795Z,29.95
2017-08-19T10:45:14.698Z,30.79
2017-08-19T10:47:42.608Z,30.60
2017-08-19T10:50:10.637Z,29.19
2017-08-19T10:52:38.537Z,28.51
2017-08-19T10:55:06.611Z,28.36
2017-08-19T10:57:34.548Z,28.19
2017-08-19T11:00:02.442Z,27.27
2017-08-19T11:02:30.355Z,27.65
2017-08-19T11:04:58.255Z,27.34
2017-08-19T11:07:26.176Z,27.95
2017-08-19T11:09:54.084Z,28.54
2017-08-19T11:12:22.057Z,27.97
2017-08-19T11:14:49.949Z,27.47
2017-08-19T11:17:17.854Z,27.28
2017-08-19T11:19:45.756Z,27.41
2017-08-19T11:22:13.884Z,28.27
2017-08-19T11:24:41.785Z,27.57
2017-08-19T11:27:09.960Z,26.27
2017-08-19T11:29:37.879Z,25.78
2017-08-19T11:32:05.779Z,25.22
2017-08-19T11:34:33.695Z,24.60
2017-08-19T11:37:01.606Z,24.53
2017-08-19T11:39:29.515Z,24.31
2017-08-19T11:41:57.410Z,24.33
2017-08-19T11:44:25.325Z,24.30
2017-08-19T11:46:53.227Z,24.66
2017-08-19T11:49:21.145Z,24.49
2017-08-19T11:51:49.057Z,24.41
2017-08-19T11:54:17.175Z,24.47
2017-08-19T11:56:45.072Z,24.64
2017-08-19T11:59:13.265Z,24.80
2017-08-19T12:01:41.171Z,24.94
2017-08-19T12:04:09.081Z,24.63
2017-08-19T12:06:36.995Z,24.50
2017-08-19T12:09:04.895Z,23.96
2017-08-19T12:11:32.812Z,24.17
2017-08-19T12:14:00.719Z,24.21
2017-08-19T12:16:28.712Z,23.84
2017-08-19T12:18:56.611Z,23.86
2017-08-19T12:21:24.852Z,23.89
2017-08-19T12:23:52.750Z,23.85
2017-08-19T12:26:20.653Z,23.70
2017-08-19T12:28:48.558Z,23.76
2017-08-19T12:31:16.459Z,23.59
2017-08-19T12:33:44.376Z,23.63
2017-08-19T12:36:12.284Z,23.65
2017-08-19T12:38:40.192Z,23.41
2017-08-19T12:41:08.105Z,23.41
2017-08-19T12:43:36.166Z,23.38
2017-08-19T12:46:04.066Z,23.43
2017-08-19T12:48:31.976Z,23.64
2017-08-19T12:50:59.878Z,23.67
2017-08-19T12:53:27.783Z,23.72
2017-08-19T12:55:55.687Z,23.25
2017-08-19T12:58:23.687Z,22.89
2017-08-19T13:00:51.608Z,22.94
2017-08-19T13:03:19.628Z,23.12
2017-08-19T13:05:47.687Z,23.41
2017-08-19T13:08:15.622Z,23.47
2017-08-19T13:10:43.538Z,23.59
2017-08-19T13:13:11.441Z,23.76
2017-08-19T13:15:39.348Z,23.91
2017-08-19T13:18:07.449Z,23.67
2017-08-19T13:20:35.351Z,23.78
2017-08-19T13:23:03.246Z,23.80
2017-08-19T13:25:31.163Z,23.74
2017-08-19T13:27:59.074Z,23.77
2017-08-19T13:30:26.983Z,23.77
2017-08-19T13:32:54.886Z,23.62
2017-08-19T13:35:23.123Z,23.53
2017-08-19T13:37:51.032Z,23.56
2017-08-19T13:40:18.940Z,23.66
2017-08-19T13:42:46.852Z,23.46
2017-08-19T13:45:15.054Z,23.22
2017-08-19T13:47:42.972Z,23.10
2017-08-19T13:50:10.870Z,23.08
2017-08-19T13:52:38.770Z,23.24
2017-08-19T13:55:06.679Z,23.17
2017-08-19T13:57:34.616Z,23.17
2017-08-19T14:00:02.763Z,23.23
2017-08-19T14:02:30.662Z,23.34
2017-08-19T14:04:58.579Z,23.58
2017-08-19T14:07:26.493Z,23.55
2017-08-19T14:09:54.399Z,23.74
2017-08-19T14:12:22.303Z,23.58
2017-08-19T14:14:50.221Z,23.78
2017-08-19T14:17:18.119Z,23.82
2017-08-19T14:19:46.323Z,23.94
2017-08-19T14:22:14.227Z,23.95
2017-08-19T14:24:42.338Z,23.82
2017-08-19T14:27:10.243Z,23.71
2017-08-19T14:29:38.155Z,23.86
2017-08-19T14:32:06.230Z,23.82
2017-08-19T14:34:34.125Z,23.74
2017-08-19T14:37:02.035Z,23.90
2017-08-19T14:39:29.934Z,23.70
2017-08-19T14:41:58.003Z,23.62
2017-08-19T14:44:25.913Z,23.68
2017-08-19T14:46:53.811Z,23.76
2017-08-19T14:49:21.727Z,23.75
2017-08-19T14:51:49.637Z,23.64
2017-08-19T14:54:17.543Z,23.43
2017-08-19T14:56:45.433Z,23.27
2017-08-19T14:59:13.355Z,23.24
2017-08-19T15:01:41.256Z,23.18
2017-08-19T15:04:09.162Z,23.27
2017-08-19T15:06:37.080Z,23.24
2017-08-19T15:09:05.513Z,23.31
2017-08-19T15:11:33.439Z,23.44
2017-08-19T15:14:01.356Z,23.42
2017-08-19T15:16:29.285Z,23.31
2017-08-19T15:18:57.178Z,22.91
2017-08-19T15:21:25.127Z,22.67
2017-08-19T15:23:53.021Z,22.82
2017-08-19T15:26:20.925Z,22.77
2017-08-19T15:28:48.826Z,22.71
2017-08-19T15:31:16.890Z,22.90
2017-08-19T15:33:44.791Z,22.82
2017-08-19T15:36:12.692Z,22.72
2017-08-19T15:38:40.615Z,22.66
2017-08-19T15:41:08.520Z,22.53
2017-08-19T15:43:36.446Z,22.43
2017-08-19T15:46:04.366Z,22.31
2017-08-19T15:48:32.289Z,22.39
2017-08-19T15:51:00.195Z,22.33
2017-08-19T15:53:28.121Z,22.34
2017-08-19T15:55:56.013Z,22.32
2017-08-19T15:58:23.927Z,22.36
2017-08-19T16:00:51.830Z,22.28
2017-08-19T16:03:19.896Z,22.36
2017-08-19T16:05:47.796Z,22.30
2017-08-19T16:08:15.694Z,22.25
2017-08-19T16:10:43.612Z,22.23
2017-08-19T16:13:11.572Z,22.25
2017-08-19T16:15:39.484Z,22.24
2017-08-19T16:18:07.382Z,22.24
2017-08-19T16:20:35.295Z,22.16
2017-08-19T16:23:03.204Z,22.05
2017-08-19T16:25:31.124Z,21.96
2017-08-19T16:27:59.032Z,22.03
2017-08-19T16:30:26.939Z,21.89
2017-08-19T16:32:54.844Z,21.91
2017-08-19T16:35:22.769Z,21.94
2017-08-19T16:37:50.670Z,21.82
2017-08-19T16:40:18.720Z,21.80
2017-08-19T16:42:46.618Z,21.71
2017-08-19T16:45:14.528Z,21.70
2017-08-19T16:47:42.538Z,21.67
2017-08-19T16:50:10.438Z,21.59
2017-08-19T16:52:38.356Z,21.52
2017-08-19T16:55:06.267Z,21.52
2017-08-19T16:57:34.176Z,21.43
2017-08-19T17:00:02.093Z,21.44
2017-08-19T17:02:30.292Z,21.32
2017-08-19T17:04:58.414Z,21.26
2017-08-19T17:07:26.315Z,21.24
2017-08-19T17:09:54.212Z,21.29
2017-08-19T17:12:22.114Z,21.31
2017-08-19T17:14:50.087Z,21.29
2017-08-19T17:17:18.316Z,21.25
2017-08-19T17:19:46.222Z,21.28
2017-08-19T17:22:14.129Z,21.21
2017-08-19T17:24:42.076Z,21.15
2017-08-19T17:27:09.993Z,21.15
2017-08-19T17:29:37.925Z,21.08
2017-08-19T17:32:05.986Z,21.00
2017-08-19T17:34:33.895Z,20.95
2017-08-19T17:37:01.804Z,20.94
2017-08-19T17:39:29.717Z,20.87
2017-08-19T17:41:57.631Z,20.82
2017-08-19T17:44:25.630Z,20.83
2017-08-19T17:46:53.540Z,20.72
2017-08-19T17:49:21.750Z,20.83
2017-08-19T17:51:49.647Z,20.86
2017-08-19T17:54:17.556Z,20.78
2017-08-19T17:56:45.476Z,20.76
2017-08-19T17:59:13.384Z,20.70
2017-08-19T18:01:41.290Z,20.67
2017-08-19T18:04:09.196Z,20.52
2017-08-19T18:06:37.359Z,20.54
2017-08-19T18:09:05.263Z,20.43
2017-08-19T18:11:33.159Z,20.24
2017-08-19T18:14:01.077Z,20.25
2017-08-19T18:16:28.993Z,20.10
2017-08-19T18:18:56.894Z,20.04
2017-08-19T18:21:24.799Z,19.85
2017-08-19T18:23:52.708Z,19.77
2017-08-19T18:26:20.620Z,19.60
2017-08-19T18:28:48.531Z,19.64
2017-08-19T18:31:16.697Z,19.58
2017-08-19T18:33:44.832Z,19.53
2017-08-19T18:36:12.741Z,19.35
2017-08-19T18:38:40.639Z,19.27
2017-08-19T18:41:08.580Z,19.14
2017-08-19T18:43:36.484Z,19.12
2017-08-19T18:46:04.401Z,19.01
2017-08-19T18:48:32.312Z,18.97
2017-08-19T18:51:00.219Z,18.96
2017-08-19T18:53:28.114Z,18.89
2017-08-19T18:55:56.019Z,18.84
2017-08-19T18:58:23.922Z,18.82
2017-08-19T19:00:52.082Z,18.73
2017-08-19T19:03:19.992Z,18.71
2017-08-19T19:05:47.905Z,18.69
2017-08-19T19:08:15.814Z,18.58
2017-08-19T19:10:43.723Z,18.48
2017-08-19T19:13:11.621Z,18.56
2017-08-19T19:15:39.522Z,18.49
2017-08-19T19:18:07.444Z,18.48
2017-08-19T19:20:35.693Z,18.39
2017-08-19T19:23:03.618Z,18.33
2017-08-19T19:25:31.527Z,18.30
2017-08-19T19:27:59.550Z,18.26
2017-08-19T19:30:27.447Z,18.28
2017-08-19T19:32:55.352Z,18.25
2017-08-19T19:35:23.259Z,18.22
2017-08-19T19:37:51.172Z,18.11
2017-08-19T19:40:19.088Z,18.08
2017-08-19T19:42:46.981Z,18.07
2017-08-19T19:45:14.899Z,18.03
2017-08-19T19:47:42.805Z,17.99
2017-08-19T19:50:10.710Z,17.95
2017-08-19T19:52:38.617Z,17.86
2017-08-19T19:55:06.533Z,17.86
2017-08-19T19:57:34.434Z,17.83
2017-08-19T20:00:02.372Z,17.79
2017-08-19T20:02:30.287Z,17.74
2017-08-19T20:04:58.195Z,17.66
2017-08-19T20:07:26.116Z,17.74
2017-08-19T20:09:54.082Z,17.65
2017-08-19T20:12:22.003Z,17.68
2017-08-19T20:14:49.894Z,17.58
2017-08-19T20:17:17.810Z,17.63
2017-08-19T20:19:45.707Z,17.52
2017-08-19T20:22:13.648Z,17.51
2017-08-19T20:24:41.570Z,17.50
2017-08-19T20:27:09.508Z,17.43
2017-08-19T20:29:37.440Z,17.36
2017-08-19T20:32:05.355Z,17.41
2017-08-19T20:34:33.279Z,17.33
2017-08-19T20:37:01.178Z,17.23
2017-08-19T20:39:29.102Z,17.26
2017-08-19T20:41:57.012Z,17.25
2017-08-19T20:44:24.951Z,17.30
2017-08-19T20:46:52.866Z,17.25
2017-08-19T20:49:20.780Z,17.18
2017-08-19T20:51:48.685Z,17.19
2017-08-19T20:54:16.910Z,17.08
2017-08-19T20:56:44.871Z,17.13
2017-08-19T20:59:12.776Z,17.10
2017-08-19T21:01:40.682Z,17.14
2017-08-19T21:04:08.609Z,17.24
2017-08-19T21:06:36.517Z,17.23
2017-08-19T21:09:04.426Z,17.12
2017-08-19T21:11:32.335Z,17.12
2017-08-19T21:14:00.255Z,17.11
2017-08-19T21:16:28.158Z,17.05
2017-08-19T21:18:56.070Z,17.02
2017-08-19T21:21:23.983Z,16.96
2017-08-19T21:23:52.096Z,16.86
2017-08-19T21:26:20.004Z,16.88
2017-08-19T21:28:47.991Z,16.84
2017-08-19T21:31:15.897Z,16.77
2017-08-19T21:33:43.826Z,16.77
2017-08-19T21:36:11.739Z,16.79
2017-08-19T21:38:39.638Z,16.72
2017-08-19T21:41:07.542Z,16.67
2017-08-19T21:43:35.454Z,16.70
2017-08-19T21:46:03.359Z,16.71
2017-08-19T21:48:31.288Z,16.67
2017-08-19T21:50:59.230Z,16.74
2017-08-19T21:53:27.364Z,16.73
2017-08-19T21:55:55.297Z,16.79
2017-08-19T21:58:23.221Z,16.72
2017-08-19T22:00:51.122Z,16.74
2017-08-19T22:03:19.026Z,16.72
2017-08-19T22:05:46.971Z,16.74
2017-08-19T22:08:14.878Z,16.73
2017-08-19T22:10:42.788Z,16.80
2017-08-19T22:13:10.690Z,16.80
2017-08-19T22:15:38.828Z,16.84
2017-08-19T22:18:06.767Z,16.89
2017-08-19T22:20:34.662Z,16.97
2017-08-19T22:23:02.572Z,16.97
2017-08-19T22:25:30.469Z,16.93
2017-08-19T22:27:58.375Z,16.93
2017-08-19T22:30:26.297Z,16.92
2017-08-19T22:32:54.212Z,16.87
2017-08-19T22:35:22.119Z,16.84
2017-08-19T22:37:50.014Z,16.79
2017-08-19T22:40:18.026Z,16.78
2017-08-19T22:42:45.994Z,16.66
2017-08-19T22:45:13.898Z,16.64
2017-08-19T22:47:41.852Z,16.63
2017-08-19T22:50:09.796Z,16.57
2017-08-19T22:52:37.708Z,16.54
2017-08-19T22:55:05.608Z,16.47
2017-08-19T22:57:33.517Z,16.43
2017-08-19T23:00:01.424Z,16.43
2017-08-19T23:02:29.325Z,16.44
2017-08-19T23:04:57.227Z,16.41
2017-08-19T23:07:25.131Z,16.37
2017-08-19T23:09:53.026Z,16.37
2017-08-19T23:12:20.940Z,16.37
2017-08-19T23:14:48.895Z,16.40
2017-08-19T23:17:16.817Z,16.38
2017-08-19T23:19:44.714Z,16.35
2017-08-19T23:22:12.618Z,16.32
2017-08-19T23:24:40.514Z,16.36
2017-08-19T23:27:08.438Z,16.24
2017-08-19T23:29:36.334Z,16.21
2017-08-19T23:32:04.270Z,16.19
2017-08-19T23:34:32.182Z,16.18
2017-08-19T23:37:00.078Z,16.16
2017-08-19T23:39:28.330Z,16.00
2017-08-19T23:41:56.231Z,15.92
2017-08-19T23:44:24.134Z,15.89
2017-08-19T23:46:52.039Z,15.87
2017-08-19T23:49:19.946Z,15.86
2017-08-19T23:51:47.840Z,15.82
2017-08-19T23:54:16.054Z,15.83
2017-08-19T23:56:43.954Z,15.80
2017-08-19T23:59:11.854Z,15.76
